Aviation Digital Data Service (ADDS)

Output produced by METARs form (2122 UTC 30 July 2015)
found at http://aviationweather.gov/adds/metars/
 
KPHF 302104Z 3021/3118 20007KT P6SM SCT050 BKN150 
     TEMPO 3100/3102 VRB20KT 4SM SHRA BKN050 OVC080 
     FM310200 23006KT P6SM SCT040 BKN100 
     FM310900 33005KT P6SM BKN150